Terminal Aerodrome Forecast
Issued by NWS Tampa Bay Area, FL

Home | Current Version | Previous Version | Text Only | Print | Product List | Glossary On
Versions: 1 2 3 4 5 6 7 8 9 10 11 12 13
000
FTUS42 KTBW 280500
TAFFMY
TAF
KFMY 280537Z 2806/2906 10004KT P6SM FEW040 SCT250
     FM281500 08006KT P6SM VCSH SCT030 SCT250
     FM281800 14007KT P6SM VCTS SCT035CB BKN050
     FM290000 20006KT P6SM VCTS SCT035CB BKN250
     FM290300 VRB05KT P6SM SCT040 BKN250=

USA.gov is the U.S. government's official web portal to all federal, state and local government web resources and services.